createdAt,value
2022-11-16T00:00:50.001Z,64.60
2022-11-16T00:03:22.383Z,65.90
2022-11-16T00:05:59.785Z,64.43
2022-11-16T00:08:32.653Z,64.73
2022-11-16T00:11:15.539Z,58.58
2022-11-16T00:13:46.993Z,56.30
2022-11-16T00:16:19.019Z,65.53
2022-11-16T00:18:52.627Z,52.75
2022-11-16T00:21:23.218Z,58.17
2022-11-16T00:23:55.534Z,60.27
2022-11-16T00:26:27.321Z,61.33
2022-11-16T00:28:59.690Z,56.33
2022-11-16T00:31:33.629Z,60.73
2022-11-16T00:34:05.508Z,54.53
2022-11-16T00:36:36.169Z,55.00
2022-11-16T00:39:09.568Z,53.00
2022-11-16T00:41:42.510Z,67.00
2022-11-16T00:44:18.915Z,53.87
2022-11-16T00:46:49.507Z,53.90
2022-11-16T00:49:20.712Z,57.33
2022-11-16T00:51:52.352Z,56.83
2022-11-16T00:54:24.403Z,56.80
2022-11-16T00:56:54.945Z,58.70
2022-11-16T00:59:25.347Z,54.27
2022-11-16T01:01:56.438Z,54.57
2022-11-16T01:04:26.971Z,53.87
2022-11-16T01:06:58.951Z,59.50
2022-11-16T01:09:29.393Z,49.27
2022-11-16T01:12:08.901Z,54.97
2022-11-16T01:14:42.409Z,54.10
2022-11-16T01:17:13.446Z,52.07
2022-11-16T01:19:44.981Z,53.55
2022-11-16T01:22:17.630Z,51.57
2022-11-16T01:24:48.443Z,55.80
2022-11-16T01:27:20.218Z,54.07
2022-11-16T01:29:51.828Z,53.83
2022-11-16T01:32:24.499Z,52.57
2022-11-16T01:34:56.189Z,58.23
2022-11-16T01:37:28.433Z,48.07
2022-11-16T01:39:59.062Z,53.58
2022-11-16T01:42:33.366Z,55.27
2022-11-16T01:45:23.164Z,52.27
2022-11-16T01:47:55.465Z,58.63
2022-11-16T01:50:26.557Z,55.77
2022-11-16T01:53:00.166Z,54.50
2022-11-16T01:55:33.034Z,59.10
2022-11-16T01:58:04.479Z,60.00
2022-11-16T02:00:35.356Z,57.73
2022-11-16T02:03:06.912Z,54.70
2022-11-16T02:06:00.330Z,54.73
2022-11-16T02:09:12.030Z,52.63
2022-11-16T02:12:14.678Z,54.67
2022-11-16T02:15:10.912Z,53.20
2022-11-16T02:17:47.215Z,55.97
2022-11-16T02:20:30.718Z,51.57
2022-11-16T02:23:14.594Z,55.67
2022-11-16T02:26:15.342Z,58.37
2022-11-16T02:28:48.817Z,53.97
2022-11-16T02:31:22.515Z,55.50
2022-11-16T02:33:58.154Z,54.40
2022-11-16T02:36:28.695Z,53.23
2022-11-16T02:39:02.490Z,51.40
2022-11-16T02:41:38.667Z,52.03
2022-11-16T02:44:11.389Z,54.30
2022-11-16T02:46:44.432Z,56.40
2022-11-16T02:49:18.757Z,53.60
2022-11-16T02:51:50.352Z,50.47
2022-11-16T02:54:24.179Z,49.30
2022-11-16T02:57:11.334Z,54.73
2022-11-16T03:02:42.239Z,53.87
2022-11-16T03:05:23.432Z,62.37
2022-11-16T03:08:03.144Z,60.70
2022-11-16T03:10:54.570Z,68.73
2022-11-16T03:13:30.506Z,66.67
2022-11-16T03:16:03.816Z,64.40
2022-11-16T03:18:36.543Z,72.07
2022-11-16T03:21:30.647Z,68.20
2022-11-16T03:24:01.937Z,63.87
2022-11-16T03:26:35.458Z,70.90
2022-11-16T03:29:13.708Z,75.22
2022-11-16T03:31:52.525Z,62.07
2022-11-16T03:34:25.990Z,61.42
2022-11-16T03:36:57.270Z,57.93
2022-11-16T03:39:33.523Z,58.77
2022-11-16T03:42:07.405Z,60.03
2022-11-16T03:44:40.741Z,60.13
2022-11-16T03:47:13.986Z,53.33
2022-11-16T03:49:48.985Z,58.37
2022-11-16T03:52:20.690Z,58.02
2022-11-16T03:54:52.610Z,59.97
2022-11-16T03:57:23.266Z,60.47
2022-11-16T03:59:56.248Z,61.90
2022-11-16T04:02:28.383Z,63.53
2022-11-16T04:05:17.091Z,64.47
2022-11-16T04:08:08.814Z,62.73
2022-11-16T04:10:57.624Z,70.23
2022-11-16T04:13:49.265Z,72.40
2022-11-16T04:16:37.797Z,74.70
2022-11-16T04:19:32.280Z,70.00
2022-11-16T04:22:23.541Z,72.33
2022-11-16T04:24:58.326Z,73.30
2022-11-16T04:27:49.019Z,79.53
2022-11-16T04:30:23.637Z,77.60
2022-11-16T04:33:12.525Z,83.60
2022-11-16T04:36:01.260Z,75.13
2022-11-16T04:38:35.135Z,77.63
2022-11-16T04:41:08.777Z,65.20
2022-11-16T04:43:40.121Z,73.87
2022-11-16T04:46:28.530Z,77.17
2022-11-16T04:48:59.214Z,73.73
2022-11-16T04:51:32.510Z,80.63
2022-11-16T04:54:02.108Z,78.00
2022-11-16T04:56:33.075Z,70.50
2022-11-16T04:59:05.076Z,84.23
2022-11-16T05:01:54.472Z,82.13
2022-11-16T05:04:24.948Z,83.43
2022-11-16T05:06:56.371Z,84.43
2022-11-16T05:09:28.309Z,87.47
2022-11-16T05:12:01.445Z,90.50
2022-11-16T05:14:31.835Z,80.50
2022-11-16T05:17:02.893Z,84.07
2022-11-16T05:19:52.591Z,92.00
2022-11-16T05:22:24.466Z,90.20
2022-11-16T05:24:56.782Z,79.27
2022-11-16T05:27:28.928Z,86.37
2022-11-16T05:30:00.043Z,76.63
2022-11-16T05:32:30.566Z,82.00
2022-11-16T05:35:02.402Z,85.67
2022-11-16T05:37:33.019Z,87.57
2022-11-16T05:40:03.673Z,82.13
2022-11-16T05:42:34.358Z,89.40
2022-11-16T05:45:05.314Z,85.23
2022-11-16T05:47:35.854Z,78.27
2022-11-16T05:50:07.219Z,88.52
2022-11-16T05:52:39.629Z,82.00
2022-11-16T05:55:10.825Z,84.33
2022-11-16T05:57:44.314Z,86.92
2022-11-16T06:00:17.254Z,81.93
2022-11-16T06:02:49.228Z,85.50
2022-11-16T06:05:19.837Z,87.70
2022-11-16T06:07:50.242Z,85.63
2022-11-16T06:10:21.290Z,88.17
2022-11-16T06:12:52.148Z,90.92
2022-11-16T06:15:25.363Z,88.35
2022-11-16T06:17:59.990Z,88.33
2022-11-16T06:20:30.612Z,85.90
2022-11-16T06:23:02.206Z,89.53
2022-11-16T06:25:33.927Z,84.15
2022-11-16T06:28:07.942Z,94.03
2022-11-16T06:30:40.214Z,90.22
2022-11-16T06:33:11.057Z,97.33
2022-11-16T06:35:41.683Z,97.10
2022-11-16T06:38:14.735Z,95.13
2022-11-16T06:40:48.224Z,89.95
2022-11-16T06:43:19.164Z,90.23
2022-11-16T06:45:52.129Z,93.52
2022-11-16T06:48:23.135Z,98.65
2022-11-16T06:50:56.186Z,98.50
2022-11-16T06:53:29.358Z,88.30
2022-11-16T06:56:05.723Z,87.97
2022-11-16T06:58:37.985Z,98.47
2022-11-16T07:01:13.282Z,86.20
2022-11-16T07:03:44.689Z,87.15
2022-11-16T07:06:16.884Z,91.63
2022-11-16T07:08:47.487Z,89.10
2022-11-16T07:11:20.524Z,93.83
2022-11-16T07:13:51.414Z,93.03
2022-11-16T07:16:23.380Z,93.90
2022-11-16T07:18:58.021Z,91.30
2022-11-16T07:21:28.726Z,97.57
2022-11-16T07:23:59.750Z,93.97
2022-11-16T07:26:31.321Z,96.50
2022-11-16T07:29:02.974Z,90.53
2022-11-16T07:31:35.019Z,93.45
2022-11-16T07:34:06.775Z,96.73
2022-11-16T07:36:37.304Z,88.00
2022-11-16T07:39:09.843Z,87.53
2022-11-16T07:41:41.978Z,96.43
2022-11-16T07:44:13.782Z,94.53
2022-11-16T07:46:47.601Z,96.20
2022-11-16T07:49:17.909Z,96.43
2022-11-16T07:51:49.019Z,92.87
2022-11-16T07:54:19.683Z,91.87
2022-11-16T07:56:50.317Z,88.80
2022-11-16T07:59:20.875Z,97.17
2022-11-16T08:01:51.479Z,91.50
2022-11-16T08:04:24.899Z,98.90
2022-11-16T08:06:58.431Z,90.17
2022-11-16T08:09:29.111Z,92.57
2022-11-16T08:12:00.853Z,90.87
2022-11-16T08:14:31.363Z,84.67
2022-11-16T08:17:08.575Z,89.62
2022-11-16T08:19:40.237Z,96.80
2022-11-16T08:22:14.061Z,85.60
2022-11-16T08:24:44.663Z,80.30
2022-11-16T08:27:18.198Z,87.43
2022-11-16T08:29:50.587Z,73.37
2022-11-16T08:32:22.647Z,79.10
2022-11-16T08:34:53.246Z,76.23
2022-11-16T08:37:25.699Z,78.23
2022-11-16T08:39:57.648Z,76.60
2022-11-16T08:42:28.585Z,75.47
2022-11-16T08:45:00.728Z,77.87
2022-11-16T08:47:32.389Z,70.97
2022-11-16T08:50:05.175Z,75.57
2022-11-16T08:52:35.792Z,74.47
2022-11-16T08:55:07.259Z,72.33
2022-11-16T08:57:41.099Z,67.37
2022-11-16T09:00:12.721Z,60.78
2022-11-16T09:02:45.060Z,62.65
2022-11-16T09:05:19.245Z,61.47
2022-11-16T09:07:50.111Z,61.55
2022-11-16T09:10:23.305Z,61.20
2022-11-16T09:12:58.306Z,59.00
2022-11-16T09:15:29.798Z,66.93
2022-11-16T09:18:01.455Z,57.33
2022-11-16T09:20:33.448Z,52.45
2022-11-16T09:23:05.731Z,58.07
2022-11-16T09:25:38.068Z,56.45
2022-11-16T09:28:08.959Z,44.30
2022-11-16T09:30:39.399Z,45.73
2022-11-16T09:33:12.309Z,47.67
2022-11-16T09:35:43.356Z,36.05
2022-11-16T09:38:24.205Z,38.33
2022-11-16T09:40:53.489Z,35.50
2022-11-16T09:43:45.566Z,33.97
2022-11-16T09:46:34.647Z,31.40
2022-11-16T09:49:17.751Z,27.67
2022-11-16T09:51:50.368Z,28.73
2022-11-16T09:54:23.869Z,29.77
2022-11-16T09:56:59.811Z,30.40
2022-11-16T09:59:40.163Z,27.63
2022-11-16T10:02:32.649Z,30.67
2022-11-16T10:05:26.589Z,28.10
2022-11-16T10:08:22.843Z,32.53
2022-11-16T10:10:59.749Z,32.80
2022-11-16T10:13:40.271Z,29.07
2022-11-16T10:16:24.059Z,32.70
2022-11-16T10:19:02.120Z,31.50
2022-11-16T10:21:59.672Z,33.13
2022-11-16T10:24:52.831Z,35.13
2022-11-16T10:27:29.840Z,28.80
2022-11-16T10:30:20.976Z,30.33
2022-11-16T10:33:11.442Z,32.73
2022-11-16T10:35:50.400Z,34.90
2022-11-16T10:38:24.377Z,28.27
2022-11-16T10:41:02.743Z,35.73
2022-11-16T10:43:33.626Z,34.98
2022-11-16T10:46:17.211Z,31.27
2022-11-16T10:49:14.080Z,32.03
2022-11-16T10:51:43.447Z,33.30
2022-11-16T10:54:17.862Z,30.47
2022-11-16T10:56:57.873Z,33.53
2022-11-16T10:59:40.290Z,39.35
2022-11-16T11:02:33.389Z,40.70
2022-11-16T11:05:22.244Z,33.73
2022-11-16T11:08:07.434Z,34.83
2022-11-16T11:10:40.273Z,42.38
2022-11-16T11:13:18.688Z,38.67
2022-11-16T11:15:51.388Z,31.03
2022-11-16T11:18:28.879Z,30.90
2022-11-16T11:21:22.402Z,32.30
2022-11-16T11:24:16.084Z,32.60
2022-11-16T11:26:39.075Z,35.00
2022-11-16T11:29:29.525Z,36.65
2022-11-16T11:32:11.694Z,39.70
2022-11-16T11:34:48.880Z,34.95
2022-11-16T11:37:23.811Z,37.80
2022-11-16T11:40:13.032Z,39.23
2022-11-16T11:42:56.856Z,37.33
2022-11-16T11:45:30.617Z,37.78
2022-11-16T11:48:06.844Z,37.03
2022-11-16T11:50:52.278Z,41.17
2022-11-16T11:53:32.979Z,39.17
2022-11-16T11:56:03.853Z,41.33
2022-11-16T11:58:37.391Z,43.10
2022-11-16T12:01:47.446Z,41.13
2022-11-16T12:04:28.651Z,37.38
2022-11-16T12:07:02.314Z,41.53
2022-11-16T12:09:36.150Z,38.13
2022-11-16T12:12:14.858Z,41.45
2022-11-16T12:15:08.886Z,40.17
2022-11-16T12:18:06.087Z,43.63
2022-11-16T12:20:43.436Z,37.17
2022-11-16T12:23:32.228Z,37.43
2022-11-16T12:26:18.018Z,39.50
2022-11-16T12:29:06.616Z,38.17
2022-11-16T12:32:15.816Z,35.05
2022-11-16T12:34:54.881Z,39.50
2022-11-16T12:37:50.925Z,40.63
2022-11-16T12:40:35.021Z,38.40
2022-11-16T12:43:28.472Z,34.50
2022-11-16T12:46:19.808Z,34.80
2022-11-16T12:49:05.085Z,38.20
2022-11-16T12:51:57.657Z,35.10
2022-11-16T12:54:31.315Z,38.57
2022-11-16T12:57:05.349Z,39.08
2022-11-16T13:00:08.382Z,36.27
2022-11-16T13:03:07.805Z,37.03
2022-11-16T13:05:59.270Z,38.73
2022-11-16T13:08:43.660Z,35.25
2022-11-16T13:11:30.710Z,32.80
2022-11-16T13:14:04.084Z,36.40
2022-11-16T13:16:35.998Z,35.10
2022-11-16T13:19:15.095Z,32.87
2022-11-16T13:22:07.332Z,37.35
2022-11-16T13:25:06.835Z,32.28
2022-11-16T13:27:49.569Z,30.80
2022-11-16T13:30:26.607Z,30.07
2022-11-16T13:33:03.642Z,27.93
2022-11-16T13:35:37.713Z,29.23
2022-11-16T13:38:13.663Z,27.70
2022-11-16T13:40:44.447Z,30.47
2022-11-16T13:43:19.450Z,27.90
2022-11-16T13:46:00.193Z,27.70
2022-11-16T13:48:37.873Z,25.67
2022-11-16T13:51:11.720Z,24.93
2022-11-16T13:54:43.080Z,25.77
2022-11-16T13:56:29.016Z,26.37
2022-11-16T13:58:58.373Z,27.00
2022-11-16T14:01:32.743Z,28.93
2022-11-16T14:04:35.179Z,23.50
2022-11-16T14:07:06.185Z,26.63
2022-11-16T14:09:46.392Z,23.53
2022-11-16T14:12:42.382Z,28.80
2022-11-16T14:15:37.359Z,25.60
2022-11-16T14:18:20.655Z,24.90
2022-11-16T14:20:58.420Z,26.53
2022-11-16T14:23:44.884Z,26.90
2022-11-16T14:26:30.476Z,27.32
2022-11-16T14:29:25.939Z,25.33
2022-11-16T14:31:59.198Z,23.67
2022-11-16T14:34:43.711Z,24.82
2022-11-16T14:37:17.235Z,25.97
2022-11-16T14:39:50.428Z,24.32
2022-11-16T14:43:01.566Z,23.67
2022-11-16T14:45:09.434Z,25.50
2022-11-16T14:47:43.471Z,22.63
2022-11-16T14:50:28.297Z,23.15
2022-11-16T14:53:05.832Z,23.87
2022-11-16T14:55:39.669Z,24.20
2022-11-16T14:58:24.691Z,23.67
2022-11-16T15:00:58.777Z,23.53
2022-11-16T15:03:36.229Z,25.67
2022-11-16T15:06:09.120Z,25.52
2022-11-16T15:08:48.575Z,23.97
2022-11-16T15:11:32.461Z,25.95
2022-11-16T15:14:06.758Z,27.75
2022-11-16T15:16:40.415Z,26.95
2022-11-16T15:19:15.731Z,22.35
2022-11-16T15:21:57.374Z,24.20
2022-11-16T15:24:33.951Z,25.97
2022-11-16T15:27:25.088Z,20.85
2022-11-16T15:29:57.176Z,20.17
2022-11-16T15:32:27.678Z,22.70
2022-11-16T15:35:04.003Z,19.93
2022-11-16T15:37:33.452Z,21.53
2022-11-16T15:40:08.080Z,18.77
2022-11-16T15:42:42.165Z,17.97
2022-11-16T15:45:17.743Z,18.27
2022-11-16T15:47:49.491Z,17.47
2022-11-16T15:50:24.380Z,17.73
2022-11-16T15:52:56.446Z,16.70
2022-11-16T15:55:37.752Z,17.35
2022-11-16T15:58:16.014Z,17.07
2022-11-16T16:00:49.865Z,17.30
2022-11-16T16:03:31.230Z,19.07
2022-11-16T16:06:02.647Z,15.80
2022-11-16T16:08:35.608Z,14.60
2022-11-16T16:11:15.810Z,15.10
2022-11-16T16:14:03.595Z,18.13
2022-11-16T16:16:37.596Z,14.43
2022-11-16T16:19:30.362Z,18.37
2022-11-16T16:22:02.791Z,16.30
2022-11-16T16:24:45.820Z,15.47
2022-11-16T16:27:23.038Z,16.40
2022-11-16T16:29:56.043Z,18.30
2022-11-16T16:32:31.870Z,15.30
2022-11-16T16:35:05.134Z,19.60
2022-11-16T16:37:39.753Z,18.63
2022-11-16T16:40:13.188Z,17.90
2022-11-16T16:42:45.738Z,19.67
2022-11-16T16:45:34.568Z,15.18
2022-11-16T16:48:08.226Z,19.40
2022-11-16T16:50:42.139Z,18.17
2022-11-16T16:53:16.469Z,19.17
2022-11-16T16:55:48.970Z,18.43
2022-11-16T16:58:19.873Z,15.90
2022-11-16T17:00:56.943Z,17.10
2022-11-16T17:03:24.877Z,17.63
2022-11-16T17:05:58.648Z,18.10
2022-11-16T17:08:33.277Z,17.70
2022-11-16T17:11:07.153Z,16.52
2022-11-16T17:13:37.837Z,16.67
2022-11-16T17:16:13.772Z,17.40
2022-11-16T17:18:45.879Z,16.97
2022-11-16T17:21:16.411Z,17.90
2022-11-16T17:23:49.234Z,17.83
2022-11-16T17:26:23.958Z,18.33
2022-11-16T17:28:59.400Z,18.90
2022-11-16T17:31:30.406Z,19.10
2022-11-16T17:34:01.635Z,18.80
2022-11-16T17:36:32.249Z,16.10
2022-11-16T17:39:09.473Z,16.90
2022-11-16T17:41:40.036Z,16.67
2022-11-16T17:44:14.948Z,15.27
2022-11-16T17:46:47.461Z,15.80
2022-11-16T17:49:19.864Z,15.70
2022-11-16T17:51:50.427Z,14.93
2022-11-16T17:54:23.285Z,13.90
2022-11-16T17:56:53.782Z,12.77
2022-11-16T17:59:29.798Z,17.13
2022-11-16T18:02:02.998Z,12.15
2022-11-16T18:04:36.696Z,16.33
2022-11-16T18:07:09.852Z,16.47
2022-11-16T18:09:41.917Z,13.18
2022-11-16T18:12:12.841Z,12.67
2022-11-16T18:14:59.896Z,10.87
2022-11-16T18:17:18.222Z,12.93
2022-11-16T18:19:51.789Z,14.43
2022-11-16T18:22:23.812Z,12.18
2022-11-16T18:24:57.667Z,12.88
2022-11-16T18:27:28.824Z,12.85
2022-11-16T18:30:00.935Z,11.40
2022-11-16T18:32:33.472Z,11.88
2022-11-16T18:35:09.889Z,14.50
2022-11-16T18:37:41.952Z,12.13
2022-11-16T18:40:14.224Z,12.90
2022-11-16T18:42:47.670Z,12.30
2022-11-16T18:45:20.218Z,13.03
2022-11-16T18:47:54.895Z,13.53
2022-11-16T18:50:26.968Z,13.37
2022-11-16T18:52:59.137Z,12.97
2022-11-16T18:55:29.609Z,12.20
2022-11-16T18:58:17.548Z,11.80
2022-11-16T19:00:38.832Z,11.73
2022-11-16T19:03:11.681Z,12.37
2022-11-16T19:05:44.634Z,11.43
2022-11-16T19:08:17.154Z,11.57
2022-11-16T19:10:47.750Z,10.87
2022-11-16T19:13:18.270Z,12.20
2022-11-16T19:15:50.197Z,11.60
2022-11-16T19:18:25.947Z,10.37
2022-11-16T19:21:10.665Z,10.03
2022-11-16T19:23:48.596Z,11.83
2022-11-16T19:26:17.588Z,9.53
2022-11-16T19:28:52.007Z,10.03
2022-11-16T19:31:25.488Z,9.80
2022-11-16T19:33:59.848Z,9.17
2022-11-16T19:36:34.600Z,9.33
2022-11-16T19:39:08.385Z,10.60
2022-11-16T19:41:40.326Z,10.70
2022-11-16T19:44:11.144Z,9.50
2022-11-16T19:46:44.150Z,11.17
2022-11-16T19:49:19.970Z,9.23
2022-11-16T19:51:50.626Z,8.47
2022-11-16T19:54:22.122Z,9.30
2022-11-16T19:56:58.548Z,9.57
2022-11-16T19:59:30.478Z,10.17
2022-11-16T20:02:03.741Z,9.13
2022-11-16T20:04:35.986Z,8.60
2022-11-16T20:07:08.365Z,11.10
2022-11-16T20:09:40.757Z,10.43
2022-11-16T20:12:20.123Z,11.30
2022-11-16T20:14:50.895Z,8.37
2022-11-16T20:17:24.872Z,10.47
2022-11-16T20:19:55.450Z,9.80
2022-11-16T20:22:26.599Z,8.93
2022-11-16T20:25:00.124Z,8.93
2022-11-16T20:27:37.258Z,9.90
2022-11-16T20:30:09.933Z,9.23
2022-11-16T20:32:43.948Z,9.80
2022-11-16T20:35:19.280Z,10.27
2022-11-16T20:37:52.184Z,9.00
2022-11-16T20:40:25.044Z,9.63
2022-11-16T20:42:58.196Z,10.10
2022-11-16T20:45:28.710Z,11.37
2022-11-16T20:48:03.741Z,10.27
2022-11-16T20:50:35.808Z,9.23
2022-11-16T20:53:12.025Z,9.57
2022-11-16T20:55:44.058Z,9.77
2022-11-16T20:58:22.651Z,12.13
2022-11-16T21:00:52.995Z,10.70
2022-11-16T21:03:24.387Z,10.40
2022-11-16T21:05:56.025Z,11.53
2022-11-16T21:08:30.907Z,8.90
2022-11-16T21:11:13.880Z,12.25
2022-11-16T21:14:04.900Z,10.93
2022-11-16T21:16:36.275Z,13.05
2022-11-16T21:19:09.889Z,10.80
2022-11-16T21:21:42.470Z,13.10
2022-11-16T21:24:14.151Z,10.30
2022-11-16T21:26:46.437Z,11.03
2022-11-16T21:29:20.591Z,11.77
2022-11-16T21:31:54.554Z,10.17
2022-11-16T21:34:40.122Z,10.93
2022-11-16T21:37:08.312Z,11.13
2022-11-16T21:39:39.477Z,11.43
2022-11-16T21:42:12.804Z,12.17
2022-11-16T21:44:43.337Z,9.90
2022-11-16T21:47:15.422Z,9.77
2022-11-16T21:50:16.440Z,11.87
2022-11-16T21:52:22.734Z,14.17
2022-11-16T21:54:54.758Z,9.20
2022-11-16T21:57:28.584Z,11.18
2022-11-16T22:00:03.023Z,11.20
2022-11-16T22:02:35.507Z,9.87
2022-11-16T22:05:24.912Z,11.03
2022-11-16T22:07:58.759Z,11.53
2022-11-16T22:10:33.487Z,10.53
2022-11-16T22:13:09.318Z,9.47
2022-11-16T22:15:41.574Z,10.00
2022-11-16T22:18:13.831Z,9.77
2022-11-16T22:20:51.641Z,9.70
2022-11-16T22:23:24.145Z,11.70
2022-11-16T22:26:03.704Z,9.83
2022-11-16T22:28:35.168Z,9.88
2022-11-16T22:31:10.774Z,10.40
2022-11-16T22:33:41.817Z,9.57
2022-11-16T22:36:13.581Z,9.83
2022-11-16T22:38:44.122Z,10.27
2022-11-16T22:41:19.513Z,11.20
2022-11-16T22:43:49.946Z,10.63
2022-11-16T22:46:21.914Z,10.47
2022-11-16T22:48:54.092Z,10.80
2022-11-16T22:51:34.960Z,9.87
2022-11-16T22:54:07.401Z,11.40
2022-11-16T22:56:40.043Z,11.33
2022-11-16T22:59:12.053Z,12.57
2022-11-16T23:01:44.725Z,10.30
2022-11-16T23:04:16.917Z,13.60
2022-11-16T23:06:49.239Z,12.13
2022-11-16T23:09:19.891Z,12.73
2022-11-16T23:12:11.295Z,10.67
2022-11-16T23:15:01.234Z,10.63
2022-11-16T23:17:32.511Z,11.47
2022-11-16T23:20:21.196Z,11.70
2022-11-16T23:23:09.358Z,11.60
2022-11-16T23:26:04.039Z,10.97
2022-11-16T23:28:36.372Z,11.73
2022-11-16T23:31:09.435Z,9.93
2022-11-16T23:33:47.043Z,17.17
2022-11-16T23:36:17.524Z,11.47
2022-11-16T23:38:48.629Z,11.83
2022-11-16T23:41:40.300Z,13.83
2022-11-16T23:44:14.200Z,11.97
2022-11-16T23:46:50.014Z,13.17
2022-11-16T23:49:20.680Z,13.17
2022-11-16T23:51:51.910Z,11.30
2022-11-16T23:54:26.139Z,12.83
2022-11-16T23:56:56.939Z,11.87
2022-11-16T23:59:27.734Z,12.73
